Time;durP1;ratioP1;P1;durP2;ratioP2;P2;SDS_P1;SDS_P2;PMS_P1;PMS_P2;Temp;Humidity;BMP_temperature;BMP_pressure;BME280_temperature;BME280_humidity;BME280_pressure;Samples;Min_cycle;Max_cycle;Signal;HPM_P1;HPM_P2
2023/03/22 00:00:37;;;;;;;6.43;3.20;;;12.30;99.90;;;;;;5001973;28;20180;-73
2023/03/22 00:03:04;;;;;;;2.80;2.20;;;12.30;99.90;;;;;;5003174;28;20426;-70
2023/03/22 00:05:30;;;;;;;2.50;2.30;;;12.30;99.90;;;;;;5002546;28;20949;-75
2023/03/22 00:07:56;;;;;;;2.93;2.63;;;12.30;99.90;;;;;;5001385;28;20465;-71
2023/03/22 00:10:27;;;;;;;2.70;2.47;;;12.30;99.90;;;;;;5002644;28;20455;-71
2023/03/22 00:12:54;;;;;;;2.37;2.17;;;12.20;99.90;;;;;;5005081;28;20985;-70
2023/03/22 00:15:21;;;;;;;2.40;2.10;;;12.20;99.90;;;;;;5005830;28;20406;-72
2023/03/22 00:17:46;;;;;;;2.17;1.97;;;12.20;99.90;;;;;;5006846;28;20423;-72
2023/03/22 00:20:12;;;;;;;3.13;2.70;;;12.10;99.90;;;;;;5006023;28;20425;-70
2023/03/22 00:22:38;;;;;;;2.83;1.90;;;12.10;99.90;;;;;;5006486;28;20553;-71
2023/03/22 00:25:05;;;;;;;3.33;2.10;;;12.10;99.90;;;;;;5006128;28;20203;-71
2023/03/22 00:27:31;;;;;;;3.13;2.13;;;12.10;99.90;;;;;;5006114;28;20205;-71
2023/03/22 00:29:56;;;;;;;2.10;1.90;;;12.00;99.90;;;;;;5005571;28;20496;-71
2023/03/22 00:32:22;;;;;;;2.27;2.07;;;11.90;99.90;;;;;;5005548;28;20541;-71
2023/03/22 00:34:48;;;;;;;2.23;2.00;;;11.90;99.90;;;;;;5005861;28;20295;-72
2023/03/22 00:37:15;;;;;;;2.57;2.37;;;12.00;99.90;;;;;;5005853;28;20619;-75
2023/03/22 00:39:41;;;;;;;3.50;2.73;;;12.10;99.90;;;;;;5005964;28;20179;-71
2023/03/22 00:42:06;;;;;;;2.93;2.43;;;12.30;99.90;;;;;;5004204;28;20478;-70
2023/03/22 00:44:32;;;;;;;2.37;2.17;;;12.30;99.90;;;;;;5002633;28;20980;-72
2023/03/22 00:46:58;;;;;;;2.00;1.80;;;12.30;99.90;;;;;;5003605;28;20222;-73
2023/03/22 00:49:24;;;;;;;4.63;2.33;;;12.30;99.90;;;;;;5005773;28;20180;-75
2023/03/22 00:51:50;;;;;;;4.23;2.63;;;12.20;99.90;;;;;;5005317;28;20211;-73
2023/03/22 00:54:16;;;;;;;3.00;1.90;;;12.30;99.90;;;;;;5005405;28;20419;-72
2023/03/22 00:56:44;;;;;;;2.50;2.13;;;12.30;99.90;;;;;;5005741;28;20418;-70
2023/03/22 00:59:12;;;;;;;2.63;1.83;;;12.30;99.90;;;;;;5005060;28;20187;-71
2023/03/22 01:01:38;;;;;;;5.27;2.77;;;12.30;99.90;;;;;;5004900;28;20613;-71
2023/03/22 01:04:04;;;;;;;3.83;2.10;;;12.20;99.90;;;;;;5005375;28;20415;-72
2023/03/22 01:06:31;;;;;;;2.50;2.03;;;12.20;99.90;;;;;;5005158;28;20463;-71
2023/03/22 01:08:57;;;;;;;2.33;2.13;;;12.10;99.90;;;;;;5005094;28;20420;-71
2023/03/22 01:11:23;;;;;;;2.63;2.40;;;12.10;99.90;;;;;;5005402;28;20448;-71
2023/03/22 01:13:49;;;;;;;3.83;2.80;;;12.00;99.90;;;;;;5004795;28;20186;-71
2023/03/22 01:16:16;;;;;;;2.93;2.30;;;11.90;99.90;;;;;;5004684;28;20411;-72
2023/03/22 01:18:42;;;;;;;3.20;2.83;;;11.90;99.90;;;;;;5004777;28;20417;-72
2023/03/22 01:21:07;;;;;;;2.93;2.60;;;11.80;99.90;;;;;;5004882;28;20792;-72
2023/03/22 01:23:33;;;;;;;6.43;3.00;;;11.70;99.90;;;;;;5004156;28;20272;-72
2023/03/22 01:26:00;;;;;;;3.97;2.60;;;11.70;99.90;;;;;;5004659;28;20223;-71
2023/03/22 01:28:26;;;;;;;2.60;2.40;;;11.70;99.90;;;;;;5005400;28;21130;-71
2023/03/22 01:30:51;;;;;;;3.57;3.27;;;11.70;99.90;;;;;;5004256;28;20427;-71
2023/03/22 01:33:17;;;;;;;2.70;2.50;;;11.70;99.90;;;;;;5004982;28;20929;-73
2023/03/22 01:35:43;;;;;;;3.10;2.80;;;11.60;99.90;;;;;;5004934;28;20178;-71
2023/03/22 01:38:08;;;;;;;4.20;3.03;;;11.60;99.90;;;;;;5005220;28;20181;-72
2023/03/22 01:40:34;;;;;;;7.77;3.10;;;11.50;99.90;;;;;;5005229;28;20191;-71
2023/03/22 01:43:00;;;;;;;6.07;3.43;;;11.30;99.90;;;;;;5004947;28;20607;-72
2023/03/22 01:45:33;;;;;;;3.77;2.97;;;11.30;99.90;;;;;;5003875;28;20620;-75
2023/03/22 01:48:15;;;;;;;3.63;2.90;;;11.50;99.90;;;;;;5004697;28;20209;-71
2023/03/22 01:50:44;;;;;;;5.80;3.43;;;11.40;99.90;;;;;;5004282;28;20470;-75
2023/03/22 01:53:12;;;;;;;3.03;2.77;;;11.50;99.90;;;;;;5005032;28;20407;-73
2023/03/22 01:55:38;;;;;;;4.37;3.07;;;11.40;99.90;;;;;;5005402;28;20415;-74
2023/03/22 01:58:04;;;;;;;4.40;3.40;;;11.40;99.90;;;;;;5004515;28;20411;-72
2023/03/22 02:00:31;;;;;;;7.40;3.70;;;11.40;99.90;;;;;;5004392;28;20422;-71
2023/03/22 02:02:57;;;;;;;2.90;2.60;;;11.40;99.90;;;;;;5004692;28;20178;-70
2023/03/22 02:05:24;;;;;;;3.03;2.70;;;11.40;99.90;;;;;;5004364;28;20843;-71
2023/03/22 02:07:50;;;;;;;5.40;2.93;;;11.40;99.90;;;;;;5004191;28;20231;-71
2023/03/22 02:10:23;;;;;;;3.13;2.83;;;11.30;99.90;;;;;;5003833;28;20427;-68
2023/03/22 02:13:02;;;;;;;4.50;3.30;;;11.30;99.90;;;;;;5004150;28;21004;-70
2023/03/22 02:16:22;;;;;;;4.50;3.10;;;11.20;99.90;;;;;;5003898;28;20784;-70
2023/03/22 02:19:28;;;;;;;3.53;3.00;;;11.20;99.90;;;;;;4976741;28;20489;-77
2023/03/22 02:22:13;;;;;;;3.80;3.33;;;11.10;99.90;;;;;;4967962;28;20428;-72
2023/03/22 02:25:35;;;;;;;4.23;3.17;;;11.00;99.90;;;;;;5002844;28;20434;-71
2023/03/22 02:28:14;;;;;;;3.00;2.70;;;10.90;99.90;;;;;;4962131;28;20572;-74
2023/03/22 02:31:11;;;;;;;3.13;2.83;;;10.80;99.90;;;;;;4961965;28;20523;-71
2023/03/22 02:34:14;;;;;;;7.93;3.10;;;10.60;99.90;;;;;;4993912;28;20416;-74
2023/03/22 02:36:58;;;;;;;5.37;2.50;;;10.40;99.90;;;;;;5002776;28;20415;-74
2023/03/22 02:40:01;;;;;;;2.77;2.57;;;10.30;99.90;;;;;;5004188;28;20989;-72
2023/03/22 02:42:55;;;;;;;2.77;2.40;;;10.20;99.90;;;;;;5003745;28;20460;-71
2023/03/22 02:45:35;;;;;;;3.63;3.00;;;10.20;99.90;;;;;;5002599;28;20395;-74
2023/03/22 02:48:10;;;;;;;3.50;2.97;;;10.10;99.90;;;;;;5003395;28;20453;-70
2023/03/22 02:50:54;;;;;;;4.17;3.10;;;10.20;99.90;;;;;;5001850;28;20446;-71
2023/03/22 02:53:28;;;;;;;4.20;2.67;;;10.20;99.90;;;;;;5004015;28;20426;-75
2023/03/22 02:56:05;;;;;;;3.40;3.10;;;10.40;99.90;;;;;;5003257;28;20422;-69
2023/03/22 02:58:44;;;;;;;4.60;3.10;;;10.50;99.90;;;;;;5002946;28;21184;-73
2023/03/22 03:01:16;;;;;;;3.57;3.27;;;10.60;99.90;;;;;;5002744;28;20442;-75
2023/03/22 03:03:47;;;;;;;4.80;2.97;;;10.60;99.90;;;;;;5003348;28;20409;-72
2023/03/22 03:06:17;;;;;;;3.43;2.90;;;10.60;99.90;;;;;;5003289;28;20456;-71
2023/03/22 03:08:45;;;;;;;3.67;3.30;;;10.60;99.90;;;;;;5003421;28;20638;-72
2023/03/22 03:11:12;;;;;;;4.20;3.10;;;10.50;99.90;;;;;;5003339;28;20712;-69
2023/03/22 03:13:37;;;;;;;3.70;3.30;;;10.40;99.90;;;;;;5003349;28;20763;-74
2023/03/22 03:16:06;;;;;;;5.50;3.60;;;10.30;99.90;;;;;;5002448;28;20414;-70
2023/03/22 03:18:39;;;;;;;4.10;3.23;;;10.30;99.90;;;;;;5003136;28;20245;-70
2023/03/22 03:21:16;;;;;;;4.60;3.50;;;10.30;99.90;;;;;;5002949;28;20444;-70
2023/03/22 03:23:55;;;;;;;3.33;2.83;;;10.30;99.90;;;;;;5003037;28;20746;-71
2023/03/22 03:26:52;;;;;;;5.80;3.50;;;10.30;99.90;;;;;;5002931;28;21056;-73
2023/03/22 03:29:47;;;;;;;3.00;2.73;;;10.20;99.90;;;;;;5002788;28;20397;-70
2023/03/22 03:32:26;;;;;;;3.90;3.37;;;10.30;99.90;;;;;;5002874;28;20489;-70
2023/03/22 03:35:02;;;;;;;6.47;3.57;;;10.30;99.90;;;;;;5003089;28;20425;-71
2023/03/22 03:37:38;;;;;;;4.27;3.13;;;10.30;99.90;;;;;;5002892;28;20418;-70
2023/03/22 03:40:12;;;;;;;3.40;3.10;;;10.20;99.90;;;;;;5003202;28;20409;-72
2023/03/22 03:42:47;;;;;;;4.90;3.27;;;10.00;99.90;;;;;;5002796;28;20466;-71
2023/03/22 03:45:14;;;;;;;4.23;3.57;;;9.90;99.90;;;;;;5001331;28;20517;-76
2023/03/22 03:47:43;;;;;;;3.90;3.10;;;9.90;99.90;;;;;;5004955;28;20448;-70
2023/03/22 03:50:10;;;;;;;2.60;2.40;;;9.90;99.90;;;;;;5007195;28;20891;-72
2023/03/22 03:52:35;;;;;;;4.20;3.30;;;9.90;99.90;;;;;;5006423;28;20568;-72
2023/03/22 03:55:01;;;;;;;3.17;2.87;;;9.90;99.90;;;;;;5006584;28;20902;-72
2023/03/22 03:57:27;;;;;;;3.50;3.30;;;9.90;99.90;;;;;;5006697;28;20416;-71
2023/03/22 03:59:52;;;;;;;8.40;3.40;;;10.00;99.90;;;;;;5006611;28;20236;-71
2023/03/22 04:02:18;;;;;;;3.63;3.33;;;10.00;99.90;;;;;;5006033;28;20284;-75
2023/03/22 04:04:43;;;;;;;3.50;3.20;;;10.00;99.90;;;;;;5006616;28;20285;-71
2023/03/22 04:07:09;;;;;;;3.93;3.37;;;10.10;99.90;;;;;;5006287;28;20207;-72
2023/03/22 04:09:37;;;;;;;3.30;2.63;;;10.20;99.90;;;;;;5006843;28;20180;-72
2023/03/22 04:12:03;;;;;;;4.17;2.90;;;10.20;99.90;;;;;;5006788;28;20852;-70
2023/03/22 04:14:29;;;;;;;5.10;3.20;;;10.30;99.90;;;;;;5006335;28;20585;-71
2023/03/22 04:16:54;;;;;;;3.37;3.07;;;10.30;99.90;;;;;;5006677;28;20414;-72
2023/03/22 04:19:21;;;;;;;3.47;3.10;;;10.20;99.90;;;;;;5006230;28;20178;-72
2023/03/22 04:21:47;;;;;;;2.77;2.30;;;10.30;99.90;;;;;;5006118;28;20204;-74
2023/03/22 04:24:13;;;;;;;4.10;3.70;;;10.40;99.90;;;;;;5006762;28;20422;-71
2023/03/22 04:26:39;;;;;;;3.40;3.10;;;10.40;99.90;;;;;;5006050;28;20450;-72
2023/03/22 04:29:05;;;;;;;4.83;4.30;;;10.40;99.90;;;;;;5006547;28;20197;-71
2023/03/22 04:31:35;;;;;;;3.33;3.03;;;10.30;99.90;;;;;;5005365;28;20477;-72
2023/03/22 04:34:04;;;;;;;5.10;3.03;;;10.40;99.90;;;;;;5005834;28;20411;-71
2023/03/22 04:36:35;;;;;;;3.80;3.50;;;10.50;99.90;;;;;;5006081;28;20425;-71
2023/03/22 04:39:03;;;;;;;3.80;3.10;;;10.40;99.90;;;;;;5004501;28;20424;-72
2023/03/22 04:41:28;;;;;;;3.10;2.90;;;10.30;99.90;;;;;;5006140;28;20546;-71
2023/03/22 04:43:56;;;;;;;3.33;3.03;;;10.30;99.90;;;;;;5005402;28;21278;-70
2023/03/22 04:46:23;;;;;;;4.83;2.70;;;10.40;99.90;;;;;;5005554;28;20284;-70
2023/03/22 04:48:48;;;;;;;3.87;3.20;;;10.40;99.90;;;;;;5005996;28;20596;-76
2023/03/22 04:51:14;;;;;;;4.23;2.80;;;10.50;99.90;;;;;;5030737;22;21117;-70
2023/03/22 04:53:40;;;;;;;5.27;4.70;;;10.60;99.90;;;;;;5006616;28;20606;-70
2023/03/22 04:56:11;;;;;;;7.10;3.13;;;10.50;99.90;;;;;;5006585;28;20643;-71
2023/03/22 04:58:39;;;;;;;3.10;2.80;;;10.40;99.90;;;;;;5005041;28;20164;-70
2023/03/22 05:01:05;;;;;;;3.40;2.83;;;10.40;99.90;;;;;;5005348;28;20513;-71
2023/03/22 05:03:31;;;;;;;3.20;3.00;;;10.50;99.90;;;;;;5004492;28;20954;-69
2023/03/22 05:05:59;;;;;;;5.57;3.67;;;10.40;99.90;;;;;;5005870;28;20435;-70
2023/03/22 05:08:27;;;;;;;3.60;2.97;;;10.40;99.90;;;;;;5005543;28;20547;-71
2023/03/22 05:10:54;;;;;;;3.90;3.23;;;10.50;99.90;;;;;;5005548;28;20415;-69
2023/03/22 05:13:22;;;;;;;3.90;3.13;;;10.40;99.90;;;;;;5005967;28;20407;-70
2023/03/22 05:15:48;;;;;;;3.50;3.20;;;10.50;99.90;;;;;;5005465;28;20424;-69
2023/03/22 05:18:14;;;;;;;6.00;3.77;;;10.60;99.90;;;;;;5005342;28;20422;-69
2023/03/22 05:20:41;;;;;;;6.10;3.70;;;10.60;99.90;;;;;;5005665;28;20421;-71
2023/03/22 05:23:08;;;;;;;4.23;3.17;;;10.70;99.90;;;;;;5005765;28;20921;-70
2023/03/22 05:25:35;;;;;;;3.47;3.17;;;10.70;99.90;;;;;;5005367;28;20496;-69
2023/03/22 05:28:02;;;;;;;6.77;3.70;;;10.70;99.90;;;;;;5005544;28;20452;-71
2023/03/22 05:30:28;;;;;;;4.83;3.10;;;10.70;99.90;;;;;;5004984;28;20814;-70
2023/03/22 05:33:02;;;;;;;5.00;3.30;;;10.70;99.90;;;;;;5005142;28;20518;-72
2023/03/22 05:35:29;;;;;;;4.93;3.63;;;10.80;99.90;;;;;;5005479;28;20410;-69
2023/03/22 05:37:56;;;;;;;6.30;3.70;;;10.90;99.90;;;;;;5005223;28;20521;-70
2023/03/22 05:40:22;;;;;;;3.57;3.27;;;10.90;99.90;;;;;;5005362;28;20426;-69
2023/03/22 05:42:47;;;;;;;4.70;3.20;;;10.90;99.90;;;;;;5005363;28;20438;-72
2023/03/22 05:45:14;;;;;;;3.47;2.73;;;10.90;99.90;;;;;;5004454;28;20786;-71
2023/03/22 05:47:39;;;;;;;4.40;3.40;;;11.00;99.90;;;;;;5003586;28;20271;-68
2023/03/22 05:50:07;;;;;;;5.23;3.30;;;11.00;99.90;;;;;;5003688;28;20431;-72
2023/03/22 05:52:32;;;;;;;5.20;4.70;;;11.00;99.90;;;;;;5005206;28;20256;-71
2023/03/22 05:54:58;;;;;;;5.00;3.27;;;11.00;99.90;;;;;;5005215;28;20956;-69
2023/03/22 05:57:23;;;;;;;3.00;2.70;;;11.10;99.90;;;;;;5005375;28;20199;-70
2023/03/22 05:59:52;;;;;;;4.90;4.40;;;11.10;99.90;;;;;;5004978;28;20240;-70
2023/03/22 06:02:18;;;;;;;6.40;2.97;;;10.90;99.90;;;;;;5004540;28;20203;-69
2023/03/22 06:04:44;;;;;;;3.47;2.90;;;10.90;99.90;;;;;;5004995;28;20415;-71
2023/03/22 06:07:09;;;;;;;4.83;3.50;;;11.00;99.90;;;;;;5004734;28;20447;-71
2023/03/22 06:09:35;;;;;;;9.83;7.97;;;11.00;99.90;;;;;;5004950;28;20182;-71
2023/03/22 06:12:00;;;;;;;9.50;8.60;;;11.00;99.90;;;;;;5004552;28;20209;-70
2023/03/22 06:14:26;;;;;;;14.47;12.93;;;11.00;99.90;;;;;;5005253;28;20706;-69
2023/03/22 06:16:52;;;;;;;18.93;17.30;;;11.10;99.90;;;;;;5004211;28;20187;-71
2023/03/22 06:19:17;;;;;;;11.13;9.00;;;11.00;99.90;;;;;;5004801;28;20175;-72
2023/03/22 06:21:43;;;;;;;9.80;8.00;;;11.00;99.90;;;;;;5005095;28;20208;-69
2023/03/22 06:24:09;;;;;;;7.67;6.43;;;11.00;99.90;;;;;;5005456;28;20405;-70
2023/03/22 06:26:34;;;;;;;8.00;5.70;;;11.00;99.90;;;;;;5005550;28;20562;-71
2023/03/22 06:29:02;;;;;;;8.80;5.60;;;10.90;99.90;;;;;;5004649;28;20179;-72
2023/03/22 06:31:28;;;;;;;7.70;5.60;;;11.00;99.90;;;;;;5003943;28;20191;-72
2023/03/22 06:33:53;;;;;;;7.93;5.40;;;10.90;99.90;;;;;;5003392;28;21036;-73
2023/03/22 06:36:19;;;;;;;8.30;6.00;;;10.80;99.90;;;;;;5004818;28;20224;-72
2023/03/22 06:38:45;;;;;;;6.70;4.60;;;10.90;99.90;;;;;;5004803;28;20182;-71
2023/03/22 06:41:11;;;;;;;5.30;3.87;;;10.90;99.90;;;;;;5004275;28;20214;-69
2023/03/22 06:43:36;;;;;;;4.87;4.40;;;10.90;99.90;;;;;;5004348;28;20222;-70
2023/03/22 06:46:02;;;;;;;8.13;4.57;;;10.90;99.90;;;;;;5001957;28;20450;-72
2023/03/22 06:48:28;;;;;;;5.23;3.60;;;10.80;99.90;;;;;;5004149;28;20659;-69
2023/03/22 06:50:53;;;;;;;6.53;4.17;;;10.80;99.90;;;;;;5003778;28;20178;-70
2023/03/22 06:53:19;;;;;;;5.70;3.30;;;11.00;99.90;;;;;;5004503;28;20175;-70
2023/03/22 06:55:44;;;;;;;3.77;3.30;;;11.10;99.90;;;;;;5004033;28;20559;-69
2023/03/22 06:58:10;;;;;;;4.50;3.10;;;11.20;99.90;;;;;;5003988;28;20272;-71
2023/03/22 07:00:37;;;;;;;3.90;3.20;;;11.30;99.90;;;;;;5002572;28;20247;-71
2023/03/22 07:03:03;;;;;;;5.30;4.43;;;11.40;99.90;;;;;;5003987;28;20235;-71
2023/03/22 07:05:29;;;;;;;3.50;3.20;;;11.50;99.90;;;;;;5003567;28;20470;-70
2023/03/22 07:07:55;;;;;;;4.50;3.20;;;11.70;99.90;;;;;;5002689;28;20212;-73
2023/03/22 07:10:20;;;;;;;4.33;3.10;;;11.90;99.90;;;;;;5004177;28;20420;-70
2023/03/22 07:12:46;;;;;;;4.07;2.83;;;12.10;99.90;;;;;;5002063;28;20204;-69
2023/03/22 07:15:11;;;;;;;4.90;2.80;;;12.20;99.90;;;;;;5004594;28;20681;-70
2023/03/22 07:17:37;;;;;;;5.93;3.13;;;12.20;99.90;;;;;;5003181;28;20272;-71
2023/03/22 07:20:03;;;;;;;6.03;3.97;;;12.20;99.90;;;;;;5004298;28;20203;-70
2023/03/22 07:22:29;;;;;;;3.00;2.70;;;12.30;99.90;;;;;;5002943;28;20202;-71
2023/03/22 07:24:55;;;;;;;5.70;3.40;;;12.30;99.90;;;;;;5004290;28;20179;-69
2023/03/22 07:27:20;;;;;;;3.37;2.90;;;12.30;99.90;;;;;;5003677;28;20796;-70
2023/03/22 07:29:46;;;;;;;7.13;2.83;;;12.40;99.90;;;;;;5003359;28;20182;-69
2023/03/22 07:32:12;;;;;;;3.73;2.63;;;12.50;99.90;;;;;;5003298;28;20208;-71
2023/03/22 07:34:37;;;;;;;2.27;2.07;;;12.60;99.90;;;;;;5003624;28;20267;-68
2023/03/22 07:37:03;;;;;;;2.57;2.37;;;12.70;99.90;;;;;;5002312;28;20652;-72
2023/03/22 07:39:29;;;;;;;4.13;2.43;;;12.80;99.90;;;;;;5003293;28;20196;-68
2023/03/22 07:41:55;;;;;;;3.87;1.80;;;12.80;99.90;;;;;;5003602;28;20454;-70
2023/03/22 07:44:22;;;;;;;2.30;2.10;;;12.90;99.90;;;;;;5003238;28;20646;-70
2023/03/22 07:46:49;;;;;;;2.23;1.90;;;13.10;99.90;;;;;;5002943;28;20214;-69
2023/03/22 07:49:15;;;;;;;2.57;2.00;;;13.20;99.90;;;;;;5003481;28;20785;-70
2023/03/22 07:51:41;;;;;;;3.00;1.97;;;13.40;99.90;;;;;;5002660;28;20467;-70
2023/03/22 07:54:06;;;;;;;2.80;2.20;;;13.50;99.90;;;;;;5003318;28;20176;-70
2023/03/22 07:56:32;;;;;;;3.50;1.73;;;13.70;99.90;;;;;;5001850;28;20220;-70
2023/03/22 07:58:57;;;;;;;4.90;1.70;;;13.80;99.90;;;;;;5003598;28;20493;-70
2023/03/22 08:01:23;;;;;;;2.60;2.30;;;13.80;99.90;;;;;;5003287;28;20271;-70
2023/03/22 08:03:49;;;;;;;2.97;1.60;;;13.90;99.90;;;;;;5003872;28;20231;-71
2023/03/22 08:06:17;;;;;;;2.10;1.57;;;14.00;99.90;;;;;;5003702;28;20207;-73
2023/03/22 08:08:43;;;;;;;2.73;2.00;;;14.10;99.90;;;;;;5003130;28;20502;-70
2023/03/22 08:11:08;;;;;;;1.93;1.50;;;14.10;99.90;;;;;;5003294;28;21057;-70
2023/03/22 08:13:34;;;;;;;2.27;1.90;;;14.30;99.90;;;;;;5001198;28;20652;-71
2023/03/22 08:16:00;;;;;;;3.10;2.00;;;14.20;99.90;;;;;;5002211;28;20282;-73
2023/03/22 08:18:26;;;;;;;3.30;1.80;;;14.30;99.90;;;;;;5003509;28;20210;-72
2023/03/22 08:20:55;;;;;;;2.70;1.63;;;14.40;99.90;;;;;;5003581;28;20845;-71
2023/03/22 08:23:22;;;;;;;5.63;2.03;;;14.60;99.90;;;;;;5003213;28;20191;-72
2023/03/22 08:25:48;;;;;;;3.67;1.87;;;14.50;99.90;;;;;;5003386;28;20483;-72
2023/03/22 08:28:14;;;;;;;1.63;1.53;;;14.40;99.90;;;;;;5003370;28;20459;-72
2023/03/22 08:30:41;;;;;;;3.40;2.17;;;14.40;99.90;;;;;;5003338;28;20229;-71
2023/03/22 08:33:07;;;;;;;4.60;1.93;;;14.40;99.90;;;;;;5003162;28;20464;-70
2023/03/22 08:35:32;;;;;;;2.70;1.83;;;14.40;99.90;;;;;;5006318;28;20529;-70
2023/03/22 08:37:58;;;;;;;3.23;1.93;;;14.30;99.90;;;;;;5006371;28;20328;-71
2023/03/22 08:40:24;;;;;;;2.90;1.77;;;14.60;99.90;;;;;;5006987;28;20193;-71
2023/03/22 08:42:50;;;;;;;4.60;2.03;;;14.60;99.90;;;;;;5006553;28;20206;-71
2023/03/22 08:45:16;;;;;;;2.07;1.53;;;14.70;99.90;;;;;;5006554;28;20521;-69
2023/03/22 08:47:42;;;;;;;1.63;1.47;;;14.70;99.90;;;;;;5006577;28;20206;-70
2023/03/22 08:50:09;;;;;;;2.00;1.60;;;14.70;99.90;;;;;;5006175;28;20480;-70
2023/03/22 08:52:35;;;;;;;1.60;1.47;;;14.80;99.90;;;;;;5005925;28;20480;-70
2023/03/22 08:55:01;;;;;;;3.90;2.13;;;14.70;99.90;;;;;;5006241;28;20885;-72
2023/03/22 08:57:28;;;;;;;2.33;1.30;;;14.80;99.90;;;;;;5006174;28;20190;-71
2023/03/22 08:59:55;;;;;;;2.10;1.53;;;14.80;99.90;;;;;;5006135;28;20187;-72
2023/03/22 09:02:21;;;;;;;2.53;1.90;;;14.80;99.90;;;;;;5004190;28;20481;-71
2023/03/22 09:04:47;;;;;;;3.10;1.87;;;14.90;99.90;;;;;;5006014;28;20794;-70
2023/03/22 09:07:12;;;;;;;2.10;1.53;;;15.10;99.90;;;;;;5006129;28;20203;-71
2023/03/22 09:09:38;;;;;;;1.30;1.20;;;15.10;99.90;;;;;;5006152;28;20245;-69
2023/03/22 09:12:04;;;;;;;2.70;1.30;;;15.00;99.90;;;;;;5006105;28;20200;-70
2023/03/22 09:14:29;;;;;;;2.07;1.50;;;15.00;99.90;;;;;;5005911;28;20179;-69
2023/03/22 09:16:55;;;;;;;1.90;1.30;;;15.10;99.90;;;;;;5006251;28;20425;-70
2023/03/22 09:19:21;;;;;;;1.17;1.07;;;15.10;99.90;;;;;;5005854;28;20196;-70
2023/03/22 09:21:46;;;;;;;1.83;1.43;;;15.20;99.90;;;;;;5005398;28;20195;-70
2023/03/22 09:24:12;;;;;;;2.13;1.30;;;15.40;99.90;;;;;;5007385;28;20436;-70
2023/03/22 09:26:38;;;;;;;1.93;1.67;;;15.50;99.90;;;;;;5006136;28;20200;-71
2023/03/22 09:29:03;;;;;;;1.50;1.27;;;15.70;99.90;;;;;;5005559;28;20331;-72
2023/03/22 09:31:29;;;;;;;3.87;0.97;;;15.90;99.90;;;;;;5005804;28;20192;-72
2023/03/22 09:33:55;;;;;;;2.27;1.30;;;15.80;99.90;;;;;;5004075;28;20183;-71
2023/03/22 09:36:20;;;;;;;2.20;1.40;;;15.90;99.90;;;;;;5005277;28;20474;-72
2023/03/22 09:38:48;;;;;;;2.07;1.43;;;15.90;99.90;;;;;;5005233;28;20214;-72
2023/03/22 09:41:40;;;;;;;2.53;1.60;;;16.10;99.90;;;;;;5005277;28;20196;-69
2023/03/22 09:44:12;;;;;;;3.97;1.30;;;16.10;99.90;;;;;;5005578;28;20521;-70
2023/03/22 09:46:43;;;;;;;1.80;1.30;;;16.10;99.90;;;;;;5005968;28;20446;-69
2023/03/22 09:49:23;;;;;;;3.57;1.73;;;16.00;99.90;;;;;;5005834;28;20453;-71
2023/03/22 09:51:51;;;;;;;2.50;1.20;;;16.00;99.90;;;;;;5004999;28;20454;-73
2023/03/22 09:54:20;;;;;;;2.00;1.40;;;16.10;99.90;;;;;;5005532;28;20507;-72
2023/03/22 09:57:06;;;;;;;1.30;1.20;;;16.20;99.90;;;;;;5005899;28;20477;-71
2023/03/22 10:00:13;;;;;;;1.40;1.00;;;16.30;99.90;;;;;;5006329;28;20415;-71
2023/03/22 10:02:45;;;;;;;4.07;1.40;;;16.40;99.90;;;;;;5004340;28;21453;-73
2023/03/22 10:05:22;;;;;;;1.53;1.43;;;16.50;99.80;;;;;;5005197;28;20471;-71
2023/03/22 10:08:03;;;;;;;3.10;1.47;;;16.70;99.90;;;;;;5004856;28;20523;-70
2023/03/22 10:10:29;;;;;;;2.10;1.50;;;16.80;98.80;;;;;;5005832;28;20423;-72
2023/03/22 10:12:56;;;;;;;1.80;1.27;;;16.70;99.00;;;;;;5004973;28;20462;-71
2023/03/22 10:15:36;;;;;;;2.60;1.57;;;16.90;99.00;;;;;;5005065;28;20501;-71
2023/03/22 10:18:06;;;;;;;3.30;1.30;;;17.20;98.60;;;;;;5004728;28;20411;-71
2023/03/22 10:20:47;;;;;;;3.73;1.30;;;17.00;98.70;;;;;;5005006;28;20921;-70
2023/03/22 10:23:22;;;;;;;1.27;1.17;;;17.10;99.00;;;;;;5003955;28;20414;-70
2023/03/22 10:25:49;;;;;;;1.83;1.00;;;17.30;99.30;;;;;;5005159;28;20774;-71
2023/03/22 10:28:20;;;;;;;2.10;1.70;;;17.20;98.80;;;;;;5004630;28;20485;-71
2023/03/22 10:30:53;;;;;;;2.27;1.30;;;17.30;99.00;;;;;;5004903;28;20676;-70
2023/03/22 10:33:36;;;;;;;2.30;1.40;;;17.20;98.90;;;;;;5004938;28;20423;-71
2023/03/22 10:36:04;;;;;;;1.67;1.30;;;17.40;98.30;;;;;;5003751;28;20818;-69
2023/03/22 10:38:33;;;;;;;2.37;1.30;;;17.40;98.00;;;;;;5003000;28;20443;-69
2023/03/22 10:40:59;;;;;;;2.80;1.40;;;17.30;98.70;;;;;;5004356;28;20426;-71
2023/03/22 10:43:36;;;;;;;2.13;1.50;;;17.30;98.50;;;;;;5004371;28;20489;-71
2023/03/22 10:46:06;;;;;;;4.20;1.50;;;17.30;98.20;;;;;;5004346;28;20856;-70
2023/03/22 10:48:35;;;;;;;1.60;1.30;;;17.50;98.40;;;;;;5002955;28;20524;-72
2023/03/22 10:53:46;;;;;;;2.40;1.40;;;18.50;97.40;;;;;;5022213;28;20454;-71
2023/03/22 10:56:18;;;;;;;1.20;1.00;;;19.60;96.10;;;;;;5022618;28;20475;-73
2023/03/22 10:58:45;;;;;;;3.17;1.50;;;20.50;93.70;;;;;;5023282;28;20398;-72
2023/03/22 11:01:14;;;;;;;1.40;1.03;;;21.80;93.40;;;;;;5023101;28;20425;-70
2023/03/22 11:03:49;;;;;;;1.20;1.00;;;22.50;90.80;;;;;;5019123;28;20410;-72
2023/03/22 11:06:17;;;;;;;1.37;1.00;;;22.30;91.40;;;;;;5007356;28;20485;-75
2023/03/22 11:08:46;;;;;;;1.40;1.00;;;22.80;90.20;;;;;;5003547;28;20795;-75
2023/03/22 11:11:30;;;;;;;2.93;1.10;;;22.30;88.70;;;;;;5020851;28;20916;-74
2023/03/22 11:14:05;;;;;;;2.20;1.00;;;21.90;87.30;;;;;;5003530;28;20419;-72
2023/03/22 11:16:39;;;;;;;1.20;0.80;;;21.70;87.30;;;;;;5016760;28;20460;-73
2023/03/22 11:19:05;;;;;;;2.80;1.20;;;21.70;87.70;;;;;;5023165;28;20405;-74
2023/03/22 11:21:32;;;;;;;1.30;0.90;;;21.40;85.60;;;;;;5005554;28;20504;-75
2023/03/22 11:24:02;;;;;;;1.40;1.10;;;21.80;84.20;;;;;;5009952;28;20187;-71
2023/03/22 11:26:32;;;;;;;1.00;0.90;;;22.10;84.30;;;;;;5022743;28;20477;-71
2023/03/22 11:29:18;;;;;;;1.77;1.10;;;22.30;82.70;;;;;;5016194;28;20471;-71
2023/03/22 11:31:49;;;;;;;1.10;0.87;;;22.70;82.90;;;;;;5017802;28;20984;-72
2023/03/22 11:34:17;;;;;;;1.30;1.00;;;22.70;81.50;;;;;;5003075;28;20453;-72
2023/03/22 11:36:44;;;;;;;3.23;1.20;;;22.80;80.80;;;;;;5012393;28;20409;-72
2023/03/22 11:39:11;;;;;;;2.43;1.10;;;22.80;75.60;;;;;;5008271;28;20419;-75
2023/03/22 11:41:38;;;;;;;3.57;0.87;;;23.70;71.40;;;;;;5016822;28;20422;-71
2023/03/22 11:44:08;;;;;;;1.30;0.80;;;24.30;67.10;;;;;;5006704;28;20415;-72
2023/03/22 11:46:36;;;;;;;1.30;0.90;;;23.60;68.10;;;;;;5013205;28;20507;-73
2023/03/22 11:49:06;;;;;;;1.23;1.13;;;23.50;66.80;;;;;;5003491;28;20599;-72
2023/03/22 11:51:38;;;;;;;2.40;1.20;;;23.60;67.60;;;;;;5020080;28;20464;-76
2023/03/22 11:54:27;;;;;;;1.70;1.20;;;24.40;65.60;;;;;;5022786;28;20420;-72
2023/03/22 11:56:57;;;;;;;1.83;1.20;;;25.00;62.60;;;;;;5008030;28;20411;-72
2023/03/22 11:59:27;;;;;;;1.43;1.00;;;25.70;62.30;;;;;;5019618;28;20411;-72
2023/03/22 12:02:13;;;;;;;3.63;1.43;;;27.00;59.80;;;;;;5004772;28;20481;-75
2023/03/22 12:04:42;;;;;;;2.30;0.83;;;25.60;57.30;;;;;;5007855;28;20473;-73
2023/03/22 12:07:19;;;;;;;1.47;0.80;;;25.20;57.40;;;;;;5009677;28;20815;-76
2023/03/22 12:10:06;;;;;;;1.47;0.80;;;25.30;58.50;;;;;;5008914;28;20423;-72
2023/03/22 12:12:38;;;;;;;2.83;1.53;;;26.30;56.60;;;;;;5018976;28;20452;-71
2023/03/22 12:15:21;;;;;;;0.90;0.70;;;27.50;55.40;;;;;;5006641;28;20430;-70
2023/03/22 12:17:52;;;;;;;1.43;0.90;;;26.90;52.90;;;;;;5008164;28;20509;-71
2023/03/22 12:20:52;;;;;;;1.43;0.97;;;26.40;52.20;;;;;;5012525;28;20932;-73
2023/03/22 12:23:27;;;;;;;1.93;1.00;;;26.50;54.30;;;;;;5025571;28;20426;-72
2023/03/22 12:25:57;;;;;;;2.10;0.90;;;25.30;55.10;;;;;;5023903;28;20951;-72
2023/03/22 12:28:51;;;;;;;1.50;1.30;;;24.40;54.90;;;;;;5011884;28;20800;-72
2023/03/22 12:31:39;;;;;;;2.03;0.80;;;23.90;56.40;;;;;;5005965;28;20776;-73
2023/03/22 12:34:18;;;;;;;2.10;1.33;;;24.00;56.40;;;;;;5019658;28;20429;-71
2023/03/22 12:36:46;;;;;;;1.70;0.70;;;24.00;55.40;;;;;;5014903;28;20480;-71
2023/03/22 12:39:41;;;;;;;1.20;0.90;;;24.20;55.30;;;;;;5014734;28;20874;-72
2023/03/22 12:42:30;;;;;;;2.13;1.20;;;24.50;55.30;;;;;;5014717;28;20477;-72
2023/03/22 12:45:01;;;;;;;1.40;0.97;;;25.60;52.00;;;;;;5017183;28;20502;-72
2023/03/22 12:47:45;;;;;;;1.50;0.90;;;25.80;52.50;;;;;;5006480;28;20789;-71
2023/03/22 12:50:20;;;;;;;1.07;0.80;;;26.60;50.10;;;;;;5018613;28;20778;-71
2023/03/22 12:52:55;;;;;;;1.63;1.00;;;26.40;50.50;;;;;;5025594;28;20433;-72
2023/03/22 12:55:31;;;;;;;2.77;1.57;;;26.20;50.50;;;;;;5018133;28;20544;-74
2023/03/22 12:57:57;;;;;;;2.03;1.00;;;24.70;52.30;;;;;;5011825;28;20417;-72
2023/03/22 13:00:31;;;;;;;2.00;0.77;;;24.30;53.10;;;;;;5009790;28;20422;-71
2023/03/22 13:03:00;;;;;;;1.30;0.70;;;24.00;53.00;;;;;;5018993;28;20646;-76
2023/03/22 13:05:28;;;;;;;2.43;0.80;;;24.40;54.20;;;;;;5023180;28;20425;-72